Bloomfield, NM (87413)

6:28 AM MDT on October 02, 2014 (GMT -0600)
Crouch Mesa | Change Station
CLOSE
Current Station
Personal Weather Station
Location: Aztec, NM
Elevation: 5876 ft
Nearby Weather Stations
Active Advisory: Special Statement

Elev 5876 ft 36.77 °N, 108.06 °W | Updated 3 seconds ago

Clear
Clear
43.0 °F
Feels Like 37 °F
N
9.8
Wind Variable Wind from SW
Gusts 11.4 mph

Today
High -- | Low -- °F
--% Chance of Precip.
Yesterday
High -- | Low -- °F
Precip. -- in
7:08 AM 6:53 PM
First Quarter, 58% visible
Pressure 29.84 in
Visibility 10.0 miles
Clouds Clear
Windchill 37 °F
Dew Point 31 °F
Humidity 63%
Rainfall 0.00 in
Snow Depth 0 in , 0 in , 1 in
UV 0 out of 12
Pollen 5.10 out of 12
Air Quality Not available.
Flu Activity Not available.
METAR KFMN 011153Z AUTO 09007KT 10SM CLR 08/05 A2994 RMK AO2 SLP105 T00780050 10089 20072 55002

More Conditions Fewer Conditions

Pressure 29.84 in
Visibility 10.0 miles
Clouds Clear
Windchill 37 °F
Dew Point 31 °F
Humidity 63%
Rainfall 0.00 in
Snow Depth 0 in , 0 in , 1 in
UV 0 out of 12
Pollen 5.10 out of 12
Air Quality Not available.
Flu Activity Not available.
METAR KFMN 011153Z AUTO 09007KT 10SM CLR 08/05 A2994 RMK AO2 SLP105 T00780050 10089 20072 55002

More Conditions Fewer Conditions

10-Day Weather Forecast

Almanac

Astronomy

Oct. 02, 2014 Rise Set
Actual Time 7:08 AM MDT 6:53 PM MDT
Civil Twilight 6:42 AM MDT 7:19 PM MDT
Nautical Twilight 6:12 AM MDT 7:49 PM MDT
Astronomical Twilight 5:42 AM MDT 8:19 PM MDT
Moon 2:54 PM MDT 12:36 AM MDT
Length of Visible Light 12h 37m
Length of Day
11h 45m
Tomorrow will be 2m 20s shorter.
First Quarter, 58% of the Moon is Illuminated
Today
First Quarter
Oct 8
Full
Oct 15
Last Quarter
Oct 23
New
Oct 30
First Quarter

Today's Extremes

State Highs State Lows

Community

WunderPhotos

Upload Photos

1,758,223 photos uploaded!

WunderBlogs® & News

Nearby

Snow Depth

Station Depth Elevation
Gallegos Peak 0 in 9800 ft
Rice Park 0 in 8460 ft
Hopewell 1 in 10000 ft
Frisco Divide 0 in 8000 ft
Wesner Springs 3 in 11120 ft

Earthquake Activity

City Distance Mag. Time & Date
No recent earthquake activity has been reported nearby.
Minimum magnitude displayed is 2.5.

Coastal Water Temperatures

Place Temperature
No Stations Reporting

Nearby Weather Stations